createdAt,value
2019-02-17T00:00:59.203Z,5.20
2019-02-17T00:03:29.345Z,5.20
2019-02-17T00:05:59.425Z,5.20
2019-02-17T00:08:29.515Z,5.10
2019-02-17T00:10:59.578Z,5.10
2019-02-17T00:13:29.980Z,4.90
2019-02-17T00:16:00.618Z,4.90
2019-02-17T00:18:30.791Z,4.90
2019-02-17T00:21:01.825Z,4.90
2019-02-17T00:23:31.735Z,4.90
2019-02-17T00:26:01.518Z,4.80
2019-02-17T00:28:31.389Z,4.70
2019-02-17T00:31:01.221Z,4.70
2019-02-17T00:33:31.061Z,4.70
2019-02-17T00:36:00.958Z,4.80
2019-02-17T00:38:31.359Z,4.70
2019-02-17T00:41:01.725Z,4.80
2019-02-17T00:43:31.837Z,5.00
2019-02-17T00:46:01.947Z,4.90
2019-02-17T00:48:32.257Z,4.80
2019-02-17T00:51:02.366Z,4.60
2019-02-17T00:53:32.758Z,4.50
2019-02-17T00:56:02.883Z,4.60
2019-02-17T00:58:33.367Z,4.60
2019-02-17T01:01:03.476Z,4.70
2019-02-17T01:03:33.698Z,5.00
2019-02-17T01:06:03.817Z,5.10
2019-02-17T01:08:34.191Z,5.10
2019-02-17T01:11:04.543Z,5.10
2019-02-17T01:13:34.921Z,5.10
2019-02-17T01:16:05.567Z,4.90
2019-02-17T01:18:54.738Z,4.70
2019-02-17T01:21:43.679Z,4.70
2019-02-17T01:24:13.549Z,4.80
2019-02-17T01:26:43.372Z,4.70
2019-02-17T01:29:20.103Z,4.60
2019-02-17T01:31:44.835Z,4.40
2019-02-17T01:34:14.691Z,4.40
2019-02-17T01:36:44.536Z,4.50
2019-02-17T01:39:14.370Z,4.60
2019-02-17T01:41:44.475Z,4.40
2019-02-17T01:44:15.134Z,4.20
2019-02-17T01:46:45.497Z,4.00
2019-02-17T01:49:15.342Z,4.00
2019-02-17T01:51:45.712Z,4.10
2019-02-17T01:54:16.101Z,4.30
2019-02-17T01:56:46.726Z,4.40
2019-02-17T01:59:17.505Z,4.50
2019-02-17T02:02:07.019Z,4.60
2019-02-17T02:04:37.409Z,4.40
2019-02-17T02:07:07.294Z,4.10
2019-02-17T02:09:37.958Z,4.10
2019-02-17T02:12:08.603Z,4.70
2019-02-17T02:14:38.710Z,4.60
2019-02-17T02:17:08.799Z,4.70
2019-02-17T02:19:38.896Z,4.70
2019-02-17T02:22:09.519Z,4.70
2019-02-17T02:24:39.633Z,5.00
2019-02-17T02:27:09.992Z,4.90
2019-02-17T02:29:41.438Z,4.80
2019-02-17T02:32:11.414Z,4.60
2019-02-17T02:34:41.781Z,4.40
2019-02-17T02:37:11.877Z,4.40
2019-02-17T02:39:42.235Z,4.40
2019-02-17T02:42:12.601Z,4.40
2019-02-17T02:44:42.963Z,4.40
2019-02-17T02:47:13.362Z,4.40
2019-02-17T02:49:43.446Z,4.40
2019-02-17T02:52:14.056Z,4.40
2019-02-17T02:54:44.170Z,4.30
2019-02-17T02:57:14.521Z,4.30
2019-02-17T02:59:52.170Z,4.30
2019-02-17T03:02:17.055Z,4.50
2019-02-17T03:04:47.426Z,4.50
2019-02-17T03:07:19.722Z,4.60
2019-02-17T03:09:50.423Z,4.70
2019-02-17T03:12:20.445Z,4.80
2019-02-17T03:14:50.612Z,4.90
2019-02-17T03:17:20.784Z,4.70
2019-02-17T03:19:51.426Z,4.60
2019-02-17T03:22:21.757Z,4.40
2019-02-17T03:24:51.882Z,4.10
2019-02-17T03:27:21.966Z,3.90
2019-02-17T03:30:04.091Z,3.70
2019-02-17T03:32:25.146Z,3.60
2019-02-17T03:34:55.177Z,3.80
2019-02-17T03:37:24.992Z,3.90
2019-02-17T03:39:54.830Z,4.10
2019-02-17T03:42:24.655Z,4.40
2019-02-17T03:44:54.507Z,4.40
2019-02-17T03:47:24.317Z,4.30
2019-02-17T03:49:54.141Z,4.30
2019-02-17T03:52:43.078Z,4.20
2019-02-17T03:55:12.948Z,4.20
2019-02-17T03:57:42.801Z,4.10
2019-02-17T04:00:16.972Z,4.10
2019-02-17T04:02:44.178Z,4.20
2019-02-17T04:05:14.275Z,4.40
2019-02-17T04:07:45.009Z,4.30
2019-02-17T04:10:26.619Z,4.20
2019-02-17T04:12:56.416Z,4.20
2019-02-17T04:15:26.230Z,4.30
2019-02-17T04:17:56.000Z,4.40
2019-02-17T04:20:44.909Z,4.40
2019-02-17T04:23:15.289Z,4.30
2019-02-17T04:25:45.650Z,4.30
2019-02-17T04:28:15.734Z,4.20
2019-02-17T04:30:45.610Z,4.40
2019-02-17T04:33:16.018Z,4.50
2019-02-17T04:35:46.433Z,4.50
2019-02-17T04:38:16.497Z,4.40
2019-02-17T04:40:47.131Z,4.40
2019-02-17T04:43:17.478Z,4.40
2019-02-17T04:45:47.790Z,4.30
2019-02-17T04:48:17.874Z,4.20
2019-02-17T04:50:47.961Z,4.20
2019-02-17T04:53:18.049Z,4.10
2019-02-17T04:55:48.158Z,4.20
2019-02-17T04:58:18.501Z,4.20
2019-02-17T05:00:50.099Z,4.20
2019-02-17T05:03:20.711Z,4.10
2019-02-17T05:05:51.171Z,4.00
2019-02-17T05:08:21.520Z,3.90
2019-02-17T05:10:52.115Z,3.70
2019-02-17T05:13:22.435Z,3.80
2019-02-17T05:15:52.614Z,4.10
2019-02-17T05:18:22.802Z,4.30
2019-02-17T05:20:52.646Z,4.20
2019-02-17T05:23:22.543Z,4.10
2019-02-17T05:25:52.322Z,4.10
2019-02-17T05:28:22.402Z,4.20
2019-02-17T05:30:53.480Z,4.10
2019-02-17T05:33:23.618Z,4.10
2019-02-17T05:35:53.469Z,4.10
2019-02-17T05:38:23.240Z,4.20
2019-02-17T05:40:53.087Z,4.10
2019-02-17T05:43:22.929Z,4.10
2019-02-17T05:45:53.380Z,4.10
2019-02-17T05:48:23.507Z,4.10
2019-02-17T05:50:53.819Z,4.10
2019-02-17T05:53:23.659Z,4.20
2019-02-17T05:55:53.567Z,4.20
2019-02-17T05:58:23.435Z,4.20
2019-02-17T06:01:03.201Z,4.20
2019-02-17T06:03:25.236Z,4.20
2019-02-17T06:05:55.009Z,4.10
2019-02-17T06:08:24.826Z,3.90
2019-02-17T06:10:55.059Z,4.00
2019-02-17T06:13:24.823Z,3.80
2019-02-17T06:15:54.636Z,3.60
2019-02-17T06:18:24.443Z,3.60
2019-02-17T06:20:54.284Z,3.50
2019-02-17T06:23:24.119Z,3.50
2019-02-17T06:25:54.106Z,3.50
2019-02-17T06:28:23.934Z,3.40
2019-02-17T06:30:53.825Z,3.30
2019-02-17T06:33:23.758Z,3.30
2019-02-17T06:35:54.448Z,3.40
2019-02-17T06:38:43.917Z,3.50
2019-02-17T06:41:14.089Z,3.70
2019-02-17T06:43:44.927Z,4.00
2019-02-17T06:46:19.421Z,3.90
2019-02-17T06:48:49.922Z,4.10
2019-02-17T06:51:21.030Z,4.30
2019-02-17T06:53:51.430Z,4.50
2019-02-17T06:56:40.263Z,4.50
2019-02-17T06:59:10.075Z,4.40
2019-02-17T07:01:39.840Z,4.50
2019-02-17T07:04:09.866Z,4.70
2019-02-17T07:06:46.742Z,4.70
2019-02-17T07:09:16.992Z,4.70
2019-02-17T07:11:47.036Z,4.70
2019-02-17T07:14:17.918Z,4.70
2019-02-17T07:16:48.754Z,4.80
2019-02-17T07:19:18.941Z,4.80
2019-02-17T07:21:49.503Z,4.80
2019-02-17T07:24:19.357Z,4.70
2019-02-17T07:26:49.262Z,4.70
2019-02-17T07:29:19.542Z,4.90
2019-02-17T07:31:50.059Z,4.90
2019-02-17T07:34:20.225Z,5.00
2019-02-17T07:36:50.858Z,5.10
2019-02-17T07:39:21.099Z,5.20
2019-02-17T07:41:50.930Z,5.40
2019-02-17T07:44:21.319Z,5.50
2019-02-17T07:46:51.125Z,5.50
2019-02-17T07:49:21.482Z,5.40
2019-02-17T07:51:52.066Z,5.40
2019-02-17T07:54:21.907Z,5.30
2019-02-17T07:56:52.021Z,4.90
2019-02-17T07:59:41.347Z,4.50
2019-02-17T08:02:11.436Z,4.20
2019-02-17T08:04:41.550Z,4.00
2019-02-17T08:07:11.404Z,3.80
2019-02-17T08:09:41.283Z,3.70
2019-02-17T08:12:11.147Z,3.60
2019-02-17T08:14:41.602Z,3.60
2019-02-17T08:17:11.737Z,3.50
2019-02-17T08:19:42.080Z,3.60
2019-02-17T08:22:12.169Z,3.50
2019-02-17T08:24:42.554Z,3.60
2019-02-17T08:27:12.371Z,3.60
2019-02-17T08:29:42.219Z,3.60
2019-02-17T08:32:12.115Z,3.60
2019-02-17T08:34:41.908Z,3.70
2019-02-17T08:37:11.798Z,3.80
2019-02-17T08:39:41.626Z,3.80
2019-02-17T08:42:11.508Z,3.90
2019-02-17T08:44:41.438Z,4.00
2019-02-17T08:47:11.349Z,4.20
2019-02-17T08:49:41.262Z,5.40
2019-02-17T08:52:11.132Z,8.90
2019-02-17T08:54:40.942Z,11.80
2019-02-17T08:57:10.802Z,13.90
2019-02-17T08:59:40.656Z,14.40
2019-02-17T09:02:10.627Z,15.70
2019-02-17T09:04:40.483Z,15.70
2019-02-17T09:07:10.359Z,15.80
2019-02-17T09:09:40.800Z,16.20
2019-02-17T09:12:11.196Z,16.40
2019-02-17T09:14:41.861Z,15.70
2019-02-17T09:17:12.038Z,15.50
2019-02-17T09:19:42.135Z,16.40
2019-02-17T09:22:12.037Z,16.90
2019-02-17T09:24:42.394Z,17.00
2019-02-17T09:27:12.731Z,17.10
2019-02-17T09:29:43.153Z,17.80
2019-02-17T09:32:16.257Z,18.40
2019-02-17T09:34:45.646Z,19.20
2019-02-17T09:37:16.427Z,20.10
2019-02-17T09:39:46.278Z,19.40
2019-02-17T09:42:16.384Z,20.20
2019-02-17T09:44:46.259Z,20.40
2019-02-17T09:47:16.106Z,21.40
2019-02-17T09:49:45.961Z,21.40
2019-02-17T09:52:15.832Z,20.70
2019-02-17T09:54:46.274Z,21.30
2019-02-17T09:57:16.642Z,20.10
2019-02-17T09:59:47.284Z,20.60
2019-02-17T10:02:26.261Z,21.00
2019-02-17T10:04:49.582Z,21.60
2019-02-17T10:07:19.940Z,21.70
2019-02-17T10:09:50.082Z,21.70
2019-02-17T10:12:20.226Z,22.40
2019-02-17T10:14:53.414Z,22.90
2019-02-17T10:17:24.050Z,23.00
2019-02-17T10:20:13.077Z,23.10
2019-02-17T10:22:43.306Z,22.70
2019-02-17T10:25:13.450Z,23.10
2019-02-17T10:27:44.121Z,22.60
2019-02-17T10:30:14.919Z,22.60
2019-02-17T10:32:45.547Z,22.90
2019-02-17T10:35:15.420Z,22.70
2019-02-17T10:37:45.260Z,23.10
2019-02-17T10:40:15.564Z,23.50
2019-02-17T10:42:45.973Z,23.00
2019-02-17T10:45:16.116Z,22.70
2019-02-17T10:47:45.927Z,23.10
2019-02-17T10:50:16.535Z,23.10
2019-02-17T10:52:46.378Z,23.20
2019-02-17T10:55:16.283Z,23.20
2019-02-17T10:57:46.150Z,23.20
2019-02-17T11:00:16.506Z,23.70
2019-02-17T11:02:47.646Z,23.70
2019-02-17T11:05:18.216Z,23.60
2019-02-17T11:07:48.155Z,23.60
2019-02-17T11:10:18.723Z,23.20
2019-02-17T11:12:48.592Z,22.80
2019-02-17T11:15:18.635Z,22.80
2019-02-17T11:17:49.095Z,22.40
2019-02-17T11:20:18.954Z,22.30
2019-02-17T11:22:48.871Z,21.90
2019-02-17T11:25:19.081Z,20.90
2019-02-17T11:27:48.986Z,20.90
2019-02-17T11:30:19.162Z,21.10
2019-02-17T11:33:08.226Z,21.00
2019-02-17T11:35:38.207Z,21.20
2019-02-17T11:38:08.074Z,21.50
2019-02-17T11:40:38.104Z,21.30
2019-02-17T11:43:08.054Z,21.70
2019-02-17T11:45:37.949Z,21.30
2019-02-17T11:48:08.990Z,21.90
2019-02-17T11:50:38.814Z,21.20
2019-02-17T11:53:08.843Z,21.40
2019-02-17T11:55:38.811Z,22.20
2019-02-17T11:58:08.691Z,22.30
2019-02-17T12:00:38.573Z,22.30
2019-02-17T12:03:08.590Z,22.20
2019-02-17T12:05:38.456Z,23.20
2019-02-17T12:08:08.390Z,22.20
2019-02-17T12:10:38.242Z,21.90
2019-02-17T12:13:08.122Z,22.40
2019-02-17T12:15:37.973Z,22.60
2019-02-17T12:18:07.839Z,22.40
2019-02-17T12:21:02.841Z,23.10
2019-02-17T12:23:39.904Z,23.10
2019-02-17T12:26:29.646Z,23.50
2019-02-17T12:29:15.481Z,23.60
2019-02-17T12:31:46.366Z,23.70
2019-02-17T12:34:16.823Z,23.40
2019-02-17T12:36:47.040Z,23.30
2019-02-17T12:39:16.996Z,23.40
2019-02-17T12:41:47.358Z,23.60
2019-02-17T12:44:17.727Z,23.50
2019-02-17T12:46:47.593Z,23.50
2019-02-17T12:49:17.641Z,23.40
2019-02-17T12:51:47.989Z,23.20
2019-02-17T12:54:28.681Z,23.20
2019-02-17T12:56:50.463Z,22.90
2019-02-17T12:59:20.449Z,22.60
2019-02-17T13:01:50.476Z,22.90
2019-02-17T13:04:20.298Z,22.50
2019-02-17T13:06:50.225Z,22.50
2019-02-17T13:09:20.844Z,22.50
2019-02-17T13:11:50.927Z,22.80
2019-02-17T13:14:21.311Z,23.00
2019-02-17T13:19:41.416Z,22.70
2019-02-17T13:22:11.398Z,22.70
2019-02-17T13:24:41.567Z,22.80
2019-02-17T13:27:12.373Z,22.80
2019-02-17T13:29:42.795Z,22.80
2019-02-17T13:32:13.188Z,22.50
2019-02-17T13:34:43.593Z,22.30
2019-02-17T13:37:13.691Z,22.40
2019-02-17T13:39:44.446Z,22.60
2019-02-17T13:42:14.898Z,22.40
2019-02-17T13:44:45.898Z,22.70
2019-02-17T13:47:16.533Z,22.40
2019-02-17T13:49:46.921Z,22.00
2019-02-17T13:52:17.017Z,21.70
2019-02-17T13:54:47.358Z,21.50
2019-02-17T13:57:18.180Z,21.40
2019-02-17T13:59:48.338Z,20.80
2019-02-17T14:02:18.802Z,20.10
2019-02-17T14:04:49.451Z,19.70
2019-02-17T14:07:19.722Z,19.50
2019-02-17T14:09:50.654Z,19.10
2019-02-17T14:12:21.057Z,19.10
2019-02-17T14:14:51.254Z,19.00
2019-02-17T14:17:21.607Z,19.00
2019-02-17T14:19:52.038Z,18.80
2019-02-17T14:22:22.057Z,18.60
2019-02-17T14:24:52.660Z,18.40
2019-02-17T14:27:23.037Z,18.30
2019-02-17T14:29:52.870Z,18.20
2019-02-17T14:32:23.254Z,18.10
2019-02-17T14:34:53.151Z,18.10
2019-02-17T14:37:24.039Z,18.00
2019-02-17T14:39:54.478Z,18.00
2019-02-17T14:42:24.614Z,18.00
2019-02-17T14:44:54.454Z,18.00
2019-02-17T14:47:24.948Z,17.90
2019-02-17T14:49:55.307Z,17.90
2019-02-17T14:52:25.687Z,17.80
2019-02-17T14:54:56.129Z,17.80
2019-02-17T14:57:26.078Z,17.80
2019-02-17T14:59:55.936Z,17.80
2019-02-17T15:02:25.761Z,17.70
2019-02-17T15:04:56.145Z,17.60
2019-02-17T15:07:26.931Z,17.60
2019-02-17T15:09:57.750Z,17.60
2019-02-17T15:12:27.615Z,17.50
2019-02-17T15:14:57.429Z,17.40
2019-02-17T15:17:28.512Z,17.40
2019-02-17T15:19:59.202Z,17.30
2019-02-17T15:22:29.796Z,17.30
2019-02-17T15:25:00.052Z,17.30
2019-02-17T15:27:29.926Z,17.20
2019-02-17T15:30:00.254Z,17.10
2019-02-17T15:32:30.518Z,17.00
2019-02-17T15:35:00.686Z,17.00
2019-02-17T15:37:31.210Z,16.90
2019-02-17T15:40:01.139Z,16.90
2019-02-17T15:42:31.080Z,16.80
2019-02-17T15:45:01.176Z,16.80
2019-02-17T15:47:31.182Z,16.70
2019-02-17T15:50:01.128Z,16.70
2019-02-17T15:52:30.977Z,16.70
2019-02-17T15:55:00.801Z,16.70
2019-02-17T15:57:30.670Z,16.60
2019-02-17T16:00:00.798Z,16.50
2019-02-17T16:02:30.622Z,16.50
2019-02-17T16:05:01.195Z,16.30
2019-02-17T16:07:31.653Z,16.30
2019-02-17T16:10:03.810Z,16.20
2019-02-17T16:12:34.225Z,16.10
2019-02-17T16:15:04.207Z,16.20
2019-02-17T16:17:34.099Z,16.00
2019-02-17T16:20:04.071Z,15.90
2019-02-17T16:22:34.347Z,15.80
2019-02-17T16:25:04.452Z,15.80
2019-02-17T16:27:36.312Z,15.60
2019-02-17T16:30:08.527Z,15.50
2019-02-17T16:32:41.808Z,15.20
2019-02-17T16:35:11.935Z,14.80
2019-02-17T16:37:42.902Z,14.60
2019-02-17T16:40:12.970Z,14.30
2019-02-17T16:42:43.070Z,14.00
2019-02-17T16:45:13.011Z,13.80
2019-02-17T16:48:01.975Z,13.70
2019-02-17T16:50:32.352Z,13.50
2019-02-17T16:53:02.277Z,13.20
2019-02-17T16:55:32.853Z,12.90
2019-02-17T16:58:02.770Z,12.60
2019-02-17T17:00:32.642Z,12.40
2019-02-17T17:03:03.163Z,12.30
2019-02-17T17:05:33.554Z,12.30
2019-02-17T17:08:04.846Z,12.10
2019-02-17T17:10:34.985Z,11.90
2019-02-17T17:13:05.804Z,11.80
2019-02-17T17:15:35.566Z,11.50
2019-02-17T17:18:06.013Z,11.40
2019-02-17T17:20:36.383Z,11.20
2019-02-17T17:23:06.230Z,11.10
2019-02-17T17:25:36.071Z,11.00
2019-02-17T17:28:05.941Z,10.90
2019-02-17T17:30:36.354Z,11.00
2019-02-17T17:33:06.211Z,10.80
2019-02-17T17:35:36.652Z,10.70
2019-02-17T17:38:06.805Z,10.60
2019-02-17T17:40:36.937Z,10.60
2019-02-17T17:43:07.054Z,10.50
2019-02-17T17:45:37.457Z,10.50
2019-02-17T17:48:07.638Z,10.40
2019-02-17T17:50:37.756Z,10.20
2019-02-17T17:53:07.853Z,10.20
2019-02-17T17:55:37.552Z,10.10
2019-02-17T17:58:07.372Z,10.00
2019-02-17T18:00:38.111Z,9.80
2019-02-17T18:03:08.039Z,9.70
2019-02-17T18:05:38.060Z,9.80
2019-02-17T18:08:07.983Z,9.70
2019-02-17T18:10:38.848Z,9.70
2019-02-17T18:13:08.681Z,9.60
2019-02-17T18:15:38.530Z,9.50
2019-02-17T18:18:08.667Z,9.50
2019-02-17T18:20:38.819Z,9.40
2019-02-17T18:23:08.842Z,9.30
2019-02-17T18:25:38.771Z,9.20
2019-02-17T18:28:08.940Z,9.20
2019-02-17T18:30:38.879Z,9.10
2019-02-17T18:33:08.761Z,9.00
2019-02-17T18:35:38.730Z,8.90
2019-02-17T18:38:08.854Z,8.90
2019-02-17T18:40:44.920Z,8.80
2019-02-17T18:43:13.042Z,8.70
2019-02-17T18:45:42.938Z,8.70
2019-02-17T18:48:13.398Z,8.60
2019-02-17T18:50:43.528Z,8.50
2019-02-17T18:53:15.318Z,8.50
2019-02-17T18:55:45.630Z,8.40
2019-02-17T18:58:15.536Z,8.40
2019-02-17T19:00:45.377Z,8.40
2019-02-17T19:03:16.238Z,8.40
2019-02-17T19:05:46.096Z,8.30
2019-02-17T19:08:15.942Z,8.30
2019-02-17T19:10:45.783Z,8.40
2019-02-17T19:13:16.218Z,8.30
2019-02-17T19:15:46.234Z,8.20
2019-02-17T19:18:16.813Z,8.20
2019-02-17T19:20:47.214Z,8.30
2019-02-17T19:23:17.073Z,8.20
2019-02-17T19:25:47.458Z,8.20
2019-02-17T19:28:17.557Z,8.20
2019-02-17T19:30:47.934Z,8.20
2019-02-17T19:33:18.128Z,8.20
2019-02-17T19:35:58.074Z,8.00
2019-02-17T19:38:28.195Z,7.90
2019-02-17T19:41:01.503Z,7.80
2019-02-17T19:43:36.606Z,7.70
2019-02-17T19:46:08.637Z,7.70
2019-02-17T19:48:38.594Z,7.60
2019-02-17T19:51:09.878Z,7.60
2019-02-17T19:53:41.426Z,7.60
2019-02-17T19:56:11.361Z,7.50
2019-02-17T19:58:42.402Z,7.60
2019-02-17T20:01:34.385Z,7.40
2019-02-17T20:04:44.013Z,7.30
2019-02-17T20:07:17.541Z,7.40
2019-02-17T20:09:48.194Z,7.30
2019-02-17T20:12:23.488Z,7.10
2019-02-17T20:14:58.244Z,7.30
2019-02-17T20:17:30.182Z,7.40
2019-02-17T20:20:01.842Z,7.30
2019-02-17T20:22:34.431Z,7.20
2019-02-17T20:25:04.702Z,7.20
2019-02-17T20:27:37.481Z,7.10
2019-02-17T20:30:26.710Z,7.00
2019-02-17T20:33:16.170Z,7.00
2019-02-17T20:35:46.268Z,6.80
2019-02-17T20:38:19.433Z,6.70
2019-02-17T20:40:56.022Z,6.70
2019-02-17T20:43:26.001Z,6.70
2019-02-17T20:45:59.439Z,6.70
2019-02-17T20:48:29.894Z,6.70
2019-02-17T20:50:59.802Z,6.60
2019-02-17T20:53:31.234Z,6.40
2019-02-17T20:56:01.184Z,6.40
2019-02-17T20:58:31.061Z,6.40
2019-02-17T21:01:00.984Z,6.30
2019-02-17T21:03:32.739Z,6.40
2019-02-17T21:06:12.430Z,6.40
2019-02-17T21:08:36.062Z,6.30
2019-02-17T21:11:06.030Z,6.30
2019-02-17T21:13:36.684Z,6.30
2019-02-17T21:16:06.970Z,6.30
2019-02-17T21:18:37.367Z,6.20
2019-02-17T21:21:07.783Z,6.20
2019-02-17T21:23:38.253Z,6.10
2019-02-17T21:26:08.808Z,6.10
2019-02-17T21:28:39.050Z,6.10
2019-02-17T21:31:09.411Z,6.00
2019-02-17T21:33:40.197Z,6.00
2019-02-17T21:36:10.682Z,6.00
2019-02-17T21:38:41.256Z,6.00
2019-02-17T21:41:11.871Z,5.90
2019-02-17T21:43:43.067Z,5.90
2019-02-17T21:46:13.690Z,6.00
2019-02-17T21:48:44.299Z,6.00
2019-02-17T21:51:14.653Z,6.10
2019-02-17T21:53:45.286Z,6.30
2019-02-17T21:56:15.650Z,6.30
2019-02-17T21:58:46.095Z,6.10
2019-02-17T22:01:16.203Z,6.00
2019-02-17T22:03:46.847Z,5.80
2019-02-17T22:06:16.743Z,5.80
2019-02-17T22:08:46.576Z,5.90
2019-02-17T22:11:16.446Z,5.80
2019-02-17T22:13:46.266Z,5.70
2019-02-17T22:16:16.967Z,5.70
2019-02-17T22:18:47.838Z,5.70
2019-02-17T22:21:17.866Z,5.80
2019-02-17T22:23:47.675Z,5.80
2019-02-17T22:26:17.656Z,5.90
2019-02-17T22:28:47.757Z,6.00
2019-02-17T22:31:18.110Z,5.90
2019-02-17T22:33:48.796Z,6.00
2019-02-17T22:36:19.173Z,6.00
2019-02-17T22:38:49.592Z,6.00
2019-02-17T22:41:19.675Z,6.10
2019-02-17T22:43:49.817Z,6.00
2019-02-17T22:46:20.179Z,5.90
2019-02-17T22:48:50.266Z,6.00
2019-02-17T22:51:20.893Z,5.90
2019-02-17T22:53:51.255Z,5.80
2019-02-17T22:56:21.821Z,5.80
2019-02-17T22:58:52.266Z,5.90
2019-02-17T23:01:25.883Z,5.70
2019-02-17T23:03:56.010Z,5.90
2019-02-17T23:06:26.086Z,5.80
2019-02-17T23:08:56.210Z,5.60
2019-02-17T23:11:26.031Z,5.50
2019-02-17T23:13:55.847Z,5.50
2019-02-17T23:16:25.686Z,5.50
2019-02-17T23:18:55.774Z,5.50
2019-02-17T23:21:25.949Z,5.50
2019-02-17T23:23:56.350Z,5.40
2019-02-17T23:26:26.438Z,5.40
2019-02-17T23:28:56.365Z,5.50
2019-02-17T23:31:26.382Z,5.40
2019-02-17T23:33:56.026Z,5.40
2019-02-17T23:36:26.104Z,5.30
2019-02-17T23:38:57.023Z,5.30
2019-02-17T23:41:27.405Z,5.20
2019-02-17T23:43:57.764Z,5.10
2019-02-17T23:46:28.108Z,5.10
2019-02-17T23:48:59.006Z,5.00
2019-02-17T23:51:29.033Z,5.00
2019-02-17T23:53:59.162Z,4.90
2019-02-17T23:56:29.230Z,4.90
2019-02-17T23:58:59.615Z,4.90
